sensor_id;sensor_type;location;lat;lon;timestamp;P1;durP1;ratioP1;P2;durP2;ratioP2
18610;SDS011;9435;52.122;5.502;2022-11-14T00:00:21;37.85;;;19.85;;
18610;SDS011;9435;52.122;5.502;2022-11-14T00:02:49;40.50;;;20.05;;
18610;SDS011;9435;52.122;5.502;2022-11-14T00:05:16;40.35;;;19.80;;
18610;SDS011;9435;52.122;5.502;2022-11-14T00:07:44;43.95;;;20.92;;
18610;SDS011;9435;52.122;5.502;2022-11-14T00:10:12;45.85;;;20.92;;
18610;SDS011;9435;52.122;5.502;2022-11-14T00:12:40;44.40;;;21.38;;
18610;SDS011;9435;52.122;5.502;2022-11-14T00:15:07;45.92;;;21.92;;
18610;SDS011;9435;52.122;5.502;2022-11-14T00:17:35;46.58;;;22.27;;
18610;SDS011;9435;52.122;5.502;2022-11-14T00:20:02;47.13;;;21.77;;
18610;SDS011;9435;52.122;5.502;2022-11-14T00:22:31;46.60;;;23.02;;
18610;SDS011;9435;52.122;5.502;2022-11-14T00:24:59;48.00;;;23.02;;
18610;SDS011;9435;52.122;5.502;2022-11-14T00:27:26;50.40;;;24.50;;
18610;SDS011;9435;52.122;5.502;2022-11-14T00:29:53;50.33;;;23.75;;
18610;SDS011;9435;52.122;5.502;2022-11-14T00:32:20;52.10;;;24.77;;
18610;SDS011;9435;52.122;5.502;2022-11-14T00:34:47;53.60;;;24.85;;
18610;SDS011;9435;52.122;5.502;2022-11-14T00:37:14;51.08;;;24.02;;
18610;SDS011;9435;52.122;5.502;2022-11-14T00:39:41;53.63;;;25.67;;
18610;SDS011;9435;52.122;5.502;2022-11-14T00:42:10;55.17;;;25.45;;
18610;SDS011;9435;52.122;5.502;2022-11-14T00:44:37;56.55;;;25.63;;
18610;SDS011;9435;52.122;5.502;2022-11-14T00:47:04;60.25;;;27.10;;
18610;SDS011;9435;52.122;5.502;2022-11-14T00:49:31;53.65;;;25.98;;
18610;SDS011;9435;52.122;5.502;2022-11-14T00:51:58;57.65;;;27.23;;
18610;SDS011;9435;52.122;5.502;2022-11-14T00:54:25;54.70;;;25.13;;
18610;SDS011;9435;52.122;5.502;2022-11-14T00:56:52;59.33;;;26.95;;
18610;SDS011;9435;52.122;5.502;2022-11-14T00:59:20;61.00;;;27.90;;
18610;SDS011;9435;52.122;5.502;2022-11-14T01:01:47;58.95;;;27.55;;
18610;SDS011;9435;52.122;5.502;2022-11-14T01:04:14;61.65;;;27.27;;
18610;SDS011;9435;52.122;5.502;2022-11-14T01:06:41;61.05;;;27.60;;
18610;SDS011;9435;52.122;5.502;2022-11-14T01:09:08;64.88;;;28.90;;
18610;SDS011;9435;52.122;5.502;2022-11-14T01:11:35;59.63;;;27.27;;
18610;SDS011;9435;52.122;5.502;2022-11-14T01:14:04;64.55;;;28.67;;
18610;SDS011;9435;52.122;5.502;2022-11-14T01:16:33;67.25;;;29.38;;
18610;SDS011;9435;52.122;5.502;2022-11-14T01:19:00;61.88;;;28.90;;
18610;SDS011;9435;52.122;5.502;2022-11-14T01:21:27;63.58;;;28.90;;
18610;SDS011;9435;52.122;5.502;2022-11-14T01:23:54;71.25;;;30.23;;
18610;SDS011;9435;52.122;5.502;2022-11-14T01:26:21;71.28;;;30.52;;
18610;SDS011;9435;52.122;5.502;2022-11-14T01:28:49;68.28;;;30.13;;
18610;SDS011;9435;52.122;5.502;2022-11-14T01:31:16;66.80;;;30.20;;
18610;SDS011;9435;52.122;5.502;2022-11-14T01:33:48;71.90;;;30.83;;
18610;SDS011;9435;52.122;5.502;2022-11-14T01:36:16;69.88;;;30.83;;
18610;SDS011;9435;52.122;5.502;2022-11-14T01:38:43;71.72;;;31.52;;
18610;SDS011;9435;52.122;5.502;2022-11-14T01:41:12;69.72;;;31.13;;
18610;SDS011;9435;52.122;5.502;2022-11-14T01:43:41;70.32;;;30.63;;
18610;SDS011;9435;52.122;5.502;2022-11-14T01:46:09;68.50;;;30.38;;
18610;SDS011;9435;52.122;5.502;2022-11-14T01:48:40;76.00;;;31.90;;
18610;SDS011;9435;52.122;5.502;2022-11-14T01:51:18;70.00;;;30.42;;
18610;SDS011;9435;52.122;5.502;2022-11-14T01:53:50;69.10;;;30.30;;
18610;SDS011;9435;52.122;5.502;2022-11-14T01:56:20;74.22;;;31.80;;
18610;SDS011;9435;52.122;5.502;2022-11-14T01:58:53;68.93;;;31.17;;
18610;SDS011;9435;52.122;5.502;2022-11-14T02:01:23;73.32;;;31.23;;
18610;SDS011;9435;52.122;5.502;2022-11-14T02:03:51;69.20;;;30.50;;
18610;SDS011;9435;52.122;5.502;2022-11-14T02:06:22;72.68;;;31.35;;
18610;SDS011;9435;52.122;5.502;2022-11-14T02:08:53;75.68;;;31.75;;
18610;SDS011;9435;52.122;5.502;2022-11-14T02:11:21;78.10;;;32.08;;
18610;SDS011;9435;52.122;5.502;2022-11-14T02:13:48;74.03;;;31.63;;
18610;SDS011;9435;52.122;5.502;2022-11-14T02:16:16;77.70;;;33.47;;
18610;SDS011;9435;52.122;5.502;2022-11-14T02:18:43;73.50;;;31.33;;
18610;SDS011;9435;52.122;5.502;2022-11-14T02:21:11;78.82;;;32.03;;
18610;SDS011;9435;52.122;5.502;2022-11-14T02:23:38;79.20;;;32.40;;
18610;SDS011;9435;52.122;5.502;2022-11-14T02:26:05;78.07;;;32.45;;
18610;SDS011;9435;52.122;5.502;2022-11-14T02:28:32;76.07;;;31.75;;
18610;SDS011;9435;52.122;5.502;2022-11-14T02:30:59;81.00;;;32.10;;
18610;SDS011;9435;52.122;5.502;2022-11-14T02:33:26;75.13;;;32.15;;
18610;SDS011;9435;52.122;5.502;2022-11-14T02:35:53;78.25;;;32.75;;
18610;SDS011;9435;52.122;5.502;2022-11-14T02:38:22;78.20;;;32.17;;
18610;SDS011;9435;52.122;5.502;2022-11-14T02:40:49;78.22;;;32.30;;
18610;SDS011;9435;52.122;5.502;2022-11-14T02:43:16;77.90;;;32.35;;
18610;SDS011;9435;52.122;5.502;2022-11-14T02:45:43;83.68;;;32.70;;
18610;SDS011;9435;52.122;5.502;2022-11-14T02:48:10;79.65;;;32.60;;
18610;SDS011;9435;52.122;5.502;2022-11-14T02:50:37;75.43;;;31.75;;
18610;SDS011;9435;52.122;5.502;2022-11-14T02:53:04;82.95;;;32.70;;
18610;SDS011;9435;52.122;5.502;2022-11-14T02:55:32;75.72;;;31.50;;
18610;SDS011;9435;52.122;5.502;2022-11-14T02:57:59;79.18;;;31.83;;
18610;SDS011;9435;52.122;5.502;2022-11-14T03:00:26;82.53;;;33.13;;
18610;SDS011;9435;52.122;5.502;2022-11-14T03:02:53;82.97;;;32.83;;
18610;SDS011;9435;52.122;5.502;2022-11-14T03:05:20;83.63;;;32.83;;
18610;SDS011;9435;52.122;5.502;2022-11-14T03:07:48;81.57;;;32.70;;
18610;SDS011;9435;52.122;5.502;2022-11-14T03:10:18;84.18;;;33.40;;
18610;SDS011;9435;52.122;5.502;2022-11-14T03:12:47;85.70;;;33.45;;
18610;SDS011;9435;52.122;5.502;2022-11-14T03:15:17;92.50;;;33.80;;
18610;SDS011;9435;52.122;5.502;2022-11-14T03:17:44;82.38;;;32.85;;
18610;SDS011;9435;52.122;5.502;2022-11-14T03:20:11;82.03;;;32.38;;
18610;SDS011;9435;52.122;5.502;2022-11-14T03:22:38;82.25;;;33.08;;
18610;SDS011;9435;52.122;5.502;2022-11-14T03:25:06;86.30;;;33.13;;
18610;SDS011;9435;52.122;5.502;2022-11-14T03:27:33;80.53;;;32.50;;
18610;SDS011;9435;52.122;5.502;2022-11-14T03:30:02;84.55;;;31.73;;
18610;SDS011;9435;52.122;5.502;2022-11-14T03:32:29;84.43;;;32.10;;
18610;SDS011;9435;52.122;5.502;2022-11-14T03:34:56;80.57;;;31.88;;
18610;SDS011;9435;52.122;5.502;2022-11-14T03:37:23;88.28;;;32.72;;
18610;SDS011;9435;52.122;5.502;2022-11-14T03:39:50;82.38;;;33.25;;
18610;SDS011;9435;52.122;5.502;2022-11-14T03:42:18;84.07;;;32.17;;
18610;SDS011;9435;52.122;5.502;2022-11-14T03:44:45;87.32;;;33.03;;
18610;SDS011;9435;52.122;5.502;2022-11-14T03:47:13;81.22;;;33.15;;
18610;SDS011;9435;52.122;5.502;2022-11-14T03:49:40;81.07;;;31.48;;
18610;SDS011;9435;52.122;5.502;2022-11-14T03:52:09;83.45;;;31.30;;
18610;SDS011;9435;52.122;5.502;2022-11-14T03:54:36;80.30;;;32.05;;
18610;SDS011;9435;52.122;5.502;2022-11-14T03:57:03;82.28;;;31.20;;
18610;SDS011;9435;52.122;5.502;2022-11-14T03:59:30;87.45;;;31.88;;
18610;SDS011;9435;52.122;5.502;2022-11-14T04:01:57;85.57;;;31.60;;
18610;SDS011;9435;52.122;5.502;2022-11-14T04:04:25;82.22;;;30.02;;
18610;SDS011;9435;52.122;5.502;2022-11-14T04:06:53;90.10;;;33.17;;
18610;SDS011;9435;52.122;5.502;2022-11-14T04:09:20;80.38;;;30.98;;
18610;SDS011;9435;52.122;5.502;2022-11-14T04:11:47;85.75;;;31.27;;
18610;SDS011;9435;52.122;5.502;2022-11-14T04:14:14;91.30;;;32.35;;
18610;SDS011;9435;52.122;5.502;2022-11-14T04:16:41;91.25;;;33.00;;
18610;SDS011;9435;52.122;5.502;2022-11-14T04:19:08;88.30;;;33.03;;
18610;SDS011;9435;52.122;5.502;2022-11-14T04:21:36;91.15;;;32.95;;
18610;SDS011;9435;52.122;5.502;2022-11-14T04:24:03;89.53;;;32.78;;
18610;SDS011;9435;52.122;5.502;2022-11-14T04:26:31;90.03;;;31.73;;
18610;SDS011;9435;52.122;5.502;2022-11-14T04:28:58;87.93;;;31.98;;
18610;SDS011;9435;52.122;5.502;2022-11-14T04:31:25;87.50;;;31.55;;
18610;SDS011;9435;52.122;5.502;2022-11-14T04:33:52;82.63;;;31.42;;
18610;SDS011;9435;52.122;5.502;2022-11-14T04:36:19;82.00;;;30.50;;
18610;SDS011;9435;52.122;5.502;2022-11-14T04:38:47;81.15;;;30.63;;
18610;SDS011;9435;52.122;5.502;2022-11-14T04:41:14;79.05;;;29.48;;
18610;SDS011;9435;52.122;5.502;2022-11-14T04:43:41;77.88;;;29.25;;
18610;SDS011;9435;52.122;5.502;2022-11-14T04:46:08;78.10;;;29.98;;
18610;SDS011;9435;52.122;5.502;2022-11-14T04:48:35;79.95;;;30.13;;
18610;SDS011;9435;52.122;5.502;2022-11-14T04:51:02;73.82;;;28.98;;
18610;SDS011;9435;52.122;5.502;2022-11-14T04:53:29;78.43;;;30.17;;
18610;SDS011;9435;52.122;5.502;2022-11-14T04:55:58;77.72;;;29.38;;
18610;SDS011;9435;52.122;5.502;2022-11-14T04:58:25;79.28;;;30.15;;
18610;SDS011;9435;52.122;5.502;2022-11-14T05:00:52;77.35;;;29.00;;
18610;SDS011;9435;52.122;5.502;2022-11-14T05:03:21;73.07;;;28.38;;
18610;SDS011;9435;52.122;5.502;2022-11-14T05:05:48;77.07;;;29.73;;
18610;SDS011;9435;52.122;5.502;2022-11-14T05:08:16;81.68;;;29.17;;
18610;SDS011;9435;52.122;5.502;2022-11-14T05:10:43;74.78;;;28.63;;
18610;SDS011;9435;52.122;5.502;2022-11-14T05:13:12;72.13;;;27.67;;
18610;SDS011;9435;52.122;5.502;2022-11-14T05:15:39;70.28;;;27.52;;
18610;SDS011;9435;52.122;5.502;2022-11-14T05:18:06;70.25;;;27.42;;
18610;SDS011;9435;52.122;5.502;2022-11-14T05:20:33;73.85;;;28.33;;
18610;SDS011;9435;52.122;5.502;2022-11-14T05:23:00;73.53;;;27.63;;
18610;SDS011;9435;52.122;5.502;2022-11-14T05:25:27;74.82;;;28.10;;
18610;SDS011;9435;52.122;5.502;2022-11-14T05:27:54;71.15;;;27.27;;
18610;SDS011;9435;52.122;5.502;2022-11-14T05:30:22;76.80;;;27.65;;
18610;SDS011;9435;52.122;5.502;2022-11-14T05:32:50;77.15;;;28.40;;
18610;SDS011;9435;52.122;5.502;2022-11-14T05:35:17;76.00;;;27.75;;
18610;SDS011;9435;52.122;5.502;2022-11-14T05:37:44;74.47;;;27.63;;
18610;SDS011;9435;52.122;5.502;2022-11-14T05:40:11;71.32;;;27.23;;
18610;SDS011;9435;52.122;5.502;2022-11-14T05:42:38;69.60;;;27.05;;
18610;SDS011;9435;52.122;5.502;2022-11-14T05:45:05;69.05;;;26.85;;
18610;SDS011;9435;52.122;5.502;2022-11-14T05:47:37;69.40;;;27.40;;
18610;SDS011;9435;52.122;5.502;2022-11-14T05:50:05;72.43;;;27.30;;
18610;SDS011;9435;52.122;5.502;2022-11-14T05:52:32;75.07;;;28.05;;
18610;SDS011;9435;52.122;5.502;2022-11-14T05:54:59;79.45;;;27.90;;
18610;SDS011;9435;52.122;5.502;2022-11-14T05:57:26;75.38;;;28.45;;
18610;SDS011;9435;52.122;5.502;2022-11-14T05:59:53;76.05;;;27.40;;
18610;SDS011;9435;52.122;5.502;2022-11-14T06:02:20;68.78;;;26.17;;
18610;SDS011;9435;52.122;5.502;2022-11-14T06:04:49;72.22;;;26.70;;
18610;SDS011;9435;52.122;5.502;2022-11-14T06:07:16;74.53;;;27.05;;
18610;SDS011;9435;52.122;5.502;2022-11-14T06:09:43;71.72;;;26.83;;
18610;SDS011;9435;52.122;5.502;2022-11-14T06:12:10;71.13;;;26.10;;
18610;SDS011;9435;52.122;5.502;2022-11-14T06:14:37;71.63;;;26.65;;
18610;SDS011;9435;52.122;5.502;2022-11-14T06:17:04;73.22;;;26.25;;
18610;SDS011;9435;52.122;5.502;2022-11-14T06:19:31;73.57;;;26.67;;
18610;SDS011;9435;52.122;5.502;2022-11-14T06:22:00;73.03;;;26.70;;
18610;SDS011;9435;52.122;5.502;2022-11-14T06:24:26;74.72;;;26.98;;
18610;SDS011;9435;52.122;5.502;2022-11-14T06:26:53;70.75;;;26.58;;
18610;SDS011;9435;52.122;5.502;2022-11-14T06:29:20;70.72;;;26.80;;
18610;SDS011;9435;52.122;5.502;2022-11-14T06:31:47;73.68;;;29.42;;
18610;SDS011;9435;52.122;5.502;2022-11-14T06:34:14;69.93;;;27.58;;
18610;SDS011;9435;52.122;5.502;2022-11-14T06:36:41;70.32;;;26.02;;
18610;SDS011;9435;52.122;5.502;2022-11-14T06:39:10;66.47;;;25.25;;
18610;SDS011;9435;52.122;5.502;2022-11-14T06:41:37;65.25;;;25.65;;
18610;SDS011;9435;52.122;5.502;2022-11-14T06:44:05;64.95;;;24.70;;
18610;SDS011;9435;52.122;5.502;2022-11-14T06:46:33;68.30;;;25.50;;
18610;SDS011;9435;52.122;5.502;2022-11-14T06:49:00;67.75;;;25.25;;
18610;SDS011;9435;52.122;5.502;2022-11-14T06:51:27;70.07;;;25.75;;
18610;SDS011;9435;52.122;5.502;2022-11-14T06:53:54;70.18;;;26.10;;
18610;SDS011;9435;52.122;5.502;2022-11-14T06:56:22;72.38;;;25.02;;
18610;SDS011;9435;52.122;5.502;2022-11-14T06:58:49;70.20;;;26.65;;
18610;SDS011;9435;52.122;5.502;2022-11-14T07:01:17;68.97;;;25.02;;
18610;SDS011;9435;52.122;5.502;2022-11-14T07:03:45;70.68;;;26.10;;
18610;SDS011;9435;52.122;5.502;2022-11-14T07:06:13;69.05;;;26.38;;
18610;SDS011;9435;52.122;5.502;2022-11-14T07:08:42;72.80;;;27.23;;
18610;SDS011;9435;52.122;5.502;2022-11-14T07:11:10;74.13;;;26.00;;
18610;SDS011;9435;52.122;5.502;2022-11-14T07:13:48;74.85;;;26.77;;
18610;SDS011;9435;52.122;5.502;2022-11-14T07:16:15;76.53;;;27.77;;
18610;SDS011;9435;52.122;5.502;2022-11-14T07:18:42;71.68;;;26.67;;
18610;SDS011;9435;52.122;5.502;2022-11-14T07:21:09;77.10;;;28.17;;
18610;SDS011;9435;52.122;5.502;2022-11-14T07:23:37;73.45;;;26.63;;
18610;SDS011;9435;52.122;5.502;2022-11-14T07:26:07;71.53;;;26.83;;
18610;SDS011;9435;52.122;5.502;2022-11-14T07:28:36;71.07;;;26.70;;
18610;SDS011;9435;52.122;5.502;2022-11-14T07:31:07;72.15;;;26.95;;
18610;SDS011;9435;52.122;5.502;2022-11-14T07:33:36;66.93;;;25.85;;
18610;SDS011;9435;52.122;5.502;2022-11-14T07:36:04;74.70;;;26.98;;
18610;SDS011;9435;52.122;5.502;2022-11-14T07:38:32;75.28;;;26.45;;
18610;SDS011;9435;52.122;5.502;2022-11-14T07:41:00;67.22;;;25.30;;
18610;SDS011;9435;52.122;5.502;2022-11-14T07:43:29;71.45;;;25.05;;
18610;SDS011;9435;52.122;5.502;2022-11-14T07:45:57;71.35;;;26.60;;
18610;SDS011;9435;52.122;5.502;2022-11-14T07:48:26;72.20;;;26.05;;
18610;SDS011;9435;52.122;5.502;2022-11-14T07:50:56;68.43;;;25.42;;
18610;SDS011;9435;52.122;5.502;2022-11-14T07:53:24;72.18;;;26.30;;
18610;SDS011;9435;52.122;5.502;2022-11-14T07:55:51;69.97;;;25.58;;
18610;SDS011;9435;52.122;5.502;2022-11-14T07:58:18;67.20;;;25.25;;
18610;SDS011;9435;52.122;5.502;2022-11-14T08:00:46;63.75;;;24.73;;
18610;SDS011;9435;52.122;5.502;2022-11-14T08:03:13;68.40;;;25.45;;
18610;SDS011;9435;52.122;5.502;2022-11-14T08:05:41;67.25;;;25.92;;
18610;SDS011;9435;52.122;5.502;2022-11-14T08:08:08;69.30;;;25.40;;
18610;SDS011;9435;52.122;5.502;2022-11-14T08:10:35;67.10;;;25.10;;
18610;SDS011;9435;52.122;5.502;2022-11-14T08:13:03;63.83;;;24.90;;
18610;SDS011;9435;52.122;5.502;2022-11-14T08:15:32;65.82;;;24.27;;
18610;SDS011;9435;52.122;5.502;2022-11-14T08:17:59;69.85;;;25.48;;
18610;SDS011;9435;52.122;5.502;2022-11-14T08:20:27;72.10;;;25.98;;
18610;SDS011;9435;52.122;5.502;2022-11-14T08:23:01;61.88;;;23.80;;
18610;SDS011;9435;52.122;5.502;2022-11-14T08:25:29;70.07;;;25.40;;
18610;SDS011;9435;52.122;5.502;2022-11-14T08:27:56;63.55;;;24.85;;
18610;SDS011;9435;52.122;5.502;2022-11-14T08:30:23;62.15;;;23.85;;
18610;SDS011;9435;52.122;5.502;2022-11-14T08:32:51;62.47;;;24.00;;
18610;SDS011;9435;52.122;5.502;2022-11-14T08:35:18;62.28;;;24.70;;
18610;SDS011;9435;52.122;5.502;2022-11-14T08:37:45;63.58;;;24.92;;
18610;SDS011;9435;52.122;5.502;2022-11-14T08:40:13;61.75;;;24.00;;
18610;SDS011;9435;52.122;5.502;2022-11-14T08:42:41;57.85;;;23.05;;
18610;SDS011;9435;52.122;5.502;2022-11-14T08:45:08;60.03;;;23.25;;
18610;SDS011;9435;52.122;5.502;2022-11-14T08:47:35;58.38;;;23.40;;
18610;SDS011;9435;52.122;5.502;2022-11-14T08:50:02;57.15;;;23.23;;
18610;SDS011;9435;52.122;5.502;2022-11-14T08:52:30;57.40;;;23.48;;
18610;SDS011;9435;52.122;5.502;2022-11-14T08:54:57;53.55;;;22.30;;
18610;SDS011;9435;52.122;5.502;2022-11-14T08:57:25;61.00;;;23.83;;
18610;SDS011;9435;52.122;5.502;2022-11-14T08:59:52;55.70;;;22.85;;
18610;SDS011;9435;52.122;5.502;2022-11-14T09:02:20;51.50;;;21.92;;
18610;SDS011;9435;52.122;5.502;2022-11-14T09:04:47;53.58;;;21.83;;
18610;SDS011;9435;52.122;5.502;2022-11-14T09:07:14;53.45;;;21.85;;
18610;SDS011;9435;52.122;5.502;2022-11-14T09:09:41;49.60;;;21.27;;
18610;SDS011;9435;52.122;5.502;2022-11-14T09:12:08;46.03;;;20.40;;
18610;SDS011;9435;52.122;5.502;2022-11-14T09:14:36;46.13;;;20.42;;
18610;SDS011;9435;52.122;5.502;2022-11-14T09:17:03;42.95;;;19.60;;
18610;SDS011;9435;52.122;5.502;2022-11-14T09:19:30;44.22;;;19.85;;
18610;SDS011;9435;52.122;5.502;2022-11-14T09:21:57;44.33;;;19.20;;
18610;SDS011;9435;52.122;5.502;2022-11-14T09:24:24;46.72;;;19.40;;
18610;SDS011;9435;52.122;5.502;2022-11-14T09:26:51;43.42;;;18.38;;
18610;SDS011;9435;52.122;5.502;2022-11-14T09:29:18;44.42;;;19.58;;
18610;SDS011;9435;52.122;5.502;2022-11-14T09:31:47;40.70;;;18.05;;
18610;SDS011;9435;52.122;5.502;2022-11-14T09:34:17;40.38;;;18.60;;
18610;SDS011;9435;52.122;5.502;2022-11-14T09:36:44;39.88;;;18.60;;
18610;SDS011;9435;52.122;5.502;2022-11-14T09:39:11;38.78;;;17.83;;
18610;SDS011;9435;52.122;5.502;2022-11-14T09:41:41;37.85;;;17.65;;
18610;SDS011;9435;52.122;5.502;2022-11-14T09:44:37;38.40;;;17.92;;
18610;SDS011;9435;52.122;5.502;2022-11-14T09:47:15;39.42;;;18.65;;
18610;SDS011;9435;52.122;5.502;2022-11-14T09:49:45;41.53;;;18.45;;
18610;SDS011;9435;52.122;5.502;2022-11-14T09:52:18;39.38;;;18.35;;
18610;SDS011;9435;52.122;5.502;2022-11-14T09:54:52;35.03;;;17.27;;
18610;SDS011;9435;52.122;5.502;2022-11-14T09:57:22;33.95;;;16.48;;
18610;SDS011;9435;52.122;5.502;2022-11-14T09:59:51;33.92;;;16.08;;
18610;SDS011;9435;52.122;5.502;2022-11-14T10:02:39;32.92;;;16.40;;
18610;SDS011;9435;52.122;5.502;2022-11-14T10:05:20;35.78;;;18.27;;
18610;SDS011;9435;52.122;5.502;2022-11-14T10:10:49;37.55;;;19.40;;
18610;SDS011;9435;52.122;5.502;2022-11-14T10:13:29;32.78;;;15.90;;
18610;SDS011;9435;52.122;5.502;2022-11-14T10:16:10;31.77;;;16.30;;
18610;SDS011;9435;52.122;5.502;2022-11-14T10:18:45;33.72;;;17.17;;
18610;SDS011;9435;52.122;5.502;2022-11-14T10:21:28;39.97;;;18.25;;
18610;SDS011;9435;52.122;5.502;2022-11-14T10:24:12;44.42;;;18.85;;
18610;SDS011;9435;52.122;5.502;2022-11-14T10:26:52;30.63;;;15.43;;
18610;SDS011;9435;52.122;5.502;2022-11-14T10:29:32;30.27;;;15.35;;
18610;SDS011;9435;52.122;5.502;2022-11-14T10:32:21;27.05;;;14.48;;
18610;SDS011;9435;52.122;5.502;2022-11-14T10:35:00;30.60;;;14.52;;
18610;SDS011;9435;52.122;5.502;2022-11-14T10:37:34;27.52;;;14.50;;
18610;SDS011;9435;52.122;5.502;2022-11-14T10:40:12;34.65;;;17.35;;
18610;SDS011;9435;52.122;5.502;2022-11-14T10:42:43;35.15;;;18.13;;
18610;SDS011;9435;52.122;5.502;2022-11-14T10:45:16;36.67;;;18.13;;
18610;SDS011;9435;52.122;5.502;2022-11-14T10:47:50;45.45;;;23.20;;
18610;SDS011;9435;52.122;5.502;2022-11-14T10:50:23;60.08;;;30.08;;
18610;SDS011;9435;52.122;5.502;2022-11-14T10:52:55;72.90;;;34.38;;
18610;SDS011;9435;52.122;5.502;2022-11-14T10:55:26;45.35;;;23.55;;
18610;SDS011;9435;52.122;5.502;2022-11-14T10:57:53;31.60;;;15.98;;
18610;SDS011;9435;52.122;5.502;2022-11-14T11:00:22;28.10;;;14.73;;
18610;SDS011;9435;52.122;5.502;2022-11-14T11:02:51;28.48;;;14.82;;
18610;SDS011;9435;52.122;5.502;2022-11-14T11:05:20;29.85;;;15.02;;
18610;SDS011;9435;52.122;5.502;2022-11-14T11:07:49;30.73;;;15.48;;
18610;SDS011;9435;52.122;5.502;2022-11-14T11:10:36;29.45;;;14.80;;
18610;SDS011;9435;52.122;5.502;2022-11-14T11:13:29;29.85;;;15.43;;
18610;SDS011;9435;52.122;5.502;2022-11-14T11:15:58;30.63;;;15.40;;
18610;SDS011;9435;52.122;5.502;2022-11-14T11:18:27;30.65;;;15.60;;
18610;SDS011;9435;52.122;5.502;2022-11-14T11:21:04;34.72;;;16.73;;
18610;SDS011;9435;52.122;5.502;2022-11-14T11:23:33;33.53;;;16.52;;
18610;SDS011;9435;52.122;5.502;2022-11-14T11:26:01;30.65;;;16.35;;
18610;SDS011;9435;52.122;5.502;2022-11-14T11:28:33;29.90;;;16.38;;
18610;SDS011;9435;52.122;5.502;2022-11-14T11:31:02;31.80;;;16.73;;
18610;SDS011;9435;52.122;5.502;2022-11-14T11:33:31;31.27;;;16.05;;
18610;SDS011;9435;52.122;5.502;2022-11-14T11:35:59;33.60;;;16.83;;
18610;SDS011;9435;52.122;5.502;2022-11-14T11:38:30;31.83;;;16.30;;
18610;SDS011;9435;52.122;5.502;2022-11-14T11:41:00;35.55;;;18.40;;
18610;SDS011;9435;52.122;5.502;2022-11-14T11:43:35;33.05;;;17.83;;
18610;SDS011;9435;52.122;5.502;2022-11-14T11:46:18;30.33;;;16.75;;
18610;SDS011;9435;52.122;5.502;2022-11-14T11:48:53;32.35;;;17.35;;
18610;SDS011;9435;52.122;5.502;2022-11-14T11:51:27;35.00;;;16.60;;
18610;SDS011;9435;52.122;5.502;2022-11-14T11:53:59;32.58;;;16.45;;
18610;SDS011;9435;52.122;5.502;2022-11-14T11:56:30;32.88;;;17.98;;
18610;SDS011;9435;52.122;5.502;2022-11-14T11:58:59;35.40;;;17.52;;
18610;SDS011;9435;52.122;5.502;2022-11-14T12:01:33;33.80;;;17.33;;
18610;SDS011;9435;52.122;5.502;2022-11-14T12:04:00;30.17;;;16.35;;
18610;SDS011;9435;52.122;5.502;2022-11-14T12:06:28;33.53;;;17.60;;
18610;SDS011;9435;52.122;5.502;2022-11-14T12:09:09;31.75;;;16.92;;
18610;SDS011;9435;52.122;5.502;2022-11-14T12:11:41;34.08;;;17.92;;
18610;SDS011;9435;52.122;5.502;2022-11-14T12:14:23;39.78;;;22.85;;
18610;SDS011;9435;52.122;5.502;2022-11-14T12:17:18;50.78;;;30.23;;
18610;SDS011;9435;52.122;5.502;2022-11-14T12:20:02;38.28;;;18.30;;
18610;SDS011;9435;52.122;5.502;2022-11-14T12:22:48;33.88;;;17.95;;
18610;SDS011;9435;52.122;5.502;2022-11-14T12:25:40;37.78;;;20.40;;
18610;SDS011;9435;52.122;5.502;2022-11-14T12:28:25;41.55;;;21.17;;
18610;SDS011;9435;52.122;5.502;2022-11-14T12:31:08;39.88;;;21.27;;
18610;SDS011;9435;52.122;5.502;2022-11-14T12:33:39;39.35;;;21.42;;
18610;SDS011;9435;52.122;5.502;2022-11-14T12:36:11;44.13;;;22.13;;
18610;SDS011;9435;52.122;5.502;2022-11-14T12:38:42;45.42;;;21.83;;
18610;SDS011;9435;52.122;5.502;2022-11-14T12:41:13;42.85;;;22.83;;
18610;SDS011;9435;52.122;5.502;2022-11-14T12:43:49;44.38;;;23.40;;
18610;SDS011;9435;52.122;5.502;2022-11-14T12:46:16;46.35;;;24.13;;
18610;SDS011;9435;52.122;5.502;2022-11-14T12:48:44;50.78;;;28.38;;
18610;SDS011;9435;52.122;5.502;2022-11-14T12:57:10;48.20;;;25.70;;
18610;SDS011;9435;52.122;5.502;2022-11-14T13:00:08;48.38;;;25.40;;
18610;SDS011;9435;52.122;5.502;2022-11-14T13:08:26;152.73;;;94.50;;
18610;SDS011;9435;52.122;5.502;2022-11-14T13:14:20;99.88;;;57.65;;
18610;SDS011;9435;52.122;5.502;2022-11-14T13:17:08;106.07;;;62.88;;
18610;SDS011;9435;52.122;5.502;2022-11-14T13:19:53;55.80;;;30.02;;
18610;SDS011;9435;52.122;5.502;2022-11-14T13:22:39;50.92;;;24.40;;
18610;SDS011;9435;52.122;5.502;2022-11-14T13:25:14;46.33;;;22.30;;
18610;SDS011;9435;52.122;5.502;2022-11-14T13:27:45;46.45;;;22.27;;
18610;SDS011;9435;52.122;5.502;2022-11-14T13:30:14;45.72;;;22.65;;
18610;SDS011;9435;52.122;5.502;2022-11-14T13:41:47;43.28;;;20.70;;
18610;SDS011;9435;52.122;5.502;2022-11-14T13:44:47;43.38;;;21.67;;
18610;SDS011;9435;52.122;5.502;2022-11-14T13:47:52;44.58;;;21.80;;
18610;SDS011;9435;52.122;5.502;2022-11-14T13:50:46;44.58;;;21.75;;
18610;SDS011;9435;52.122;5.502;2022-11-14T13:53:17;43.33;;;21.63;;
18610;SDS011;9435;52.122;5.502;2022-11-14T13:55:54;41.83;;;21.52;;
18610;SDS011;9435;52.122;5.502;2022-11-14T13:58:35;49.03;;;22.98;;
18610;SDS011;9435;52.122;5.502;2022-11-14T14:01:21;46.35;;;22.17;;
18610;SDS011;9435;52.122;5.502;2022-11-14T14:04:11;47.85;;;23.17;;
18610;SDS011;9435;52.122;5.502;2022-11-14T14:06:51;49.50;;;23.58;;
18610;SDS011;9435;52.122;5.502;2022-11-14T14:09:31;47.08;;;23.40;;
18610;SDS011;9435;52.122;5.502;2022-11-14T14:14:57;49.38;;;23.42;;
18610;SDS011;9435;52.122;5.502;2022-11-14T14:17:36;50.60;;;23.65;;
18610;SDS011;9435;52.122;5.502;2022-11-14T14:20:19;51.53;;;25.10;;
18610;SDS011;9435;52.122;5.502;2022-11-14T14:22:57;52.35;;;24.95;;
18610;SDS011;9435;52.122;5.502;2022-11-14T14:25:33;55.58;;;24.38;;
18610;SDS011;9435;52.122;5.502;2022-11-14T14:28:10;55.20;;;26.10;;
18610;SDS011;9435;52.122;5.502;2022-11-14T14:31:01;57.53;;;26.92;;
18610;SDS011;9435;52.122;5.502;2022-11-14T14:33:37;59.95;;;28.55;;
18610;SDS011;9435;52.122;5.502;2022-11-14T14:36:16;55.50;;;27.40;;
18610;SDS011;9435;52.122;5.502;2022-11-14T14:38:44;54.63;;;27.85;;
18610;SDS011;9435;52.122;5.502;2022-11-14T14:41:13;59.55;;;28.75;;
18610;SDS011;9435;52.122;5.502;2022-11-14T14:43:43;61.08;;;28.52;;
18610;SDS011;9435;52.122;5.502;2022-11-14T14:46:24;60.97;;;29.10;;
18610;SDS011;9435;52.122;5.502;2022-11-14T14:48:53;62.28;;;29.58;;
18610;SDS011;9435;52.122;5.502;2022-11-14T14:51:29;58.78;;;27.65;;
18610;SDS011;9435;52.122;5.502;2022-11-14T14:53:58;57.80;;;27.73;;
18610;SDS011;9435;52.122;5.502;2022-11-14T14:56:25;57.10;;;26.65;;
18610;SDS011;9435;52.122;5.502;2022-11-14T14:58:52;58.28;;;26.98;;
18610;SDS011;9435;52.122;5.502;2022-11-14T15:01:20;59.72;;;26.80;;
18610;SDS011;9435;52.122;5.502;2022-11-14T15:03:50;55.35;;;26.25;;
18610;SDS011;9435;52.122;5.502;2022-11-14T15:06:22;59.20;;;26.17;;
18610;SDS011;9435;52.122;5.502;2022-11-14T15:08:56;53.95;;;25.38;;
18610;SDS011;9435;52.122;5.502;2022-11-14T15:11:26;59.50;;;26.42;;
18610;SDS011;9435;52.122;5.502;2022-11-14T15:13:54;54.13;;;26.20;;
18610;SDS011;9435;52.122;5.502;2022-11-14T15:16:23;52.97;;;25.45;;
18610;SDS011;9435;52.122;5.502;2022-11-14T15:18:51;54.72;;;25.60;;
18610;SDS011;9435;52.122;5.502;2022-11-14T15:21:24;51.97;;;24.73;;